Time;durP1;ratioP1;P1;durP2;ratioP2;P2;SDS_P1;SDS_P2;PMS_P1;PMS_P2;Temp;Humidity;BMP_temperature;BMP_pressure;BME280_temperature;BME280_humidity;BME280_pressure;Samples;Min_cycle;Max_cycle;Signal;HPM_P1;HPM_P2
2023/07/19 00:01:12;;;;;;;4.80;1.80;;;;;;;;;;5051008;28;20203;-53
2023/07/19 00:03:38;;;;;;;4.03;1.50;;;;;;;;;;5054202;28;20198;-56
2023/07/19 00:06:04;;;;;;;3.70;1.90;;;;;;;;;;5054063;28;20223;-53
2023/07/19 00:08:32;;;;;;;2.73;1.70;;;;;;;;;;5054002;28;20202;-54
2023/07/19 00:10:58;;;;;;;2.03;1.80;;;;;;;;;;5053853;28;20682;-55
2023/07/19 00:13:24;;;;;;;1.60;1.50;;;;;;;;;;5054235;28;20236;-55
2023/07/19 00:15:50;;;;;;;2.20;1.60;;;;;;;;;;5053649;28;20230;-55
2023/07/19 00:18:16;;;;;;;3.70;1.50;;;;;;;;;;5053875;28;20198;-54
2023/07/19 00:20:42;;;;;;;5.03;1.80;;;;;;;;;;5053664;28;20720;-55
2023/07/19 00:23:08;;;;;;;3.00;2.20;;;;;;;;;;5053836;28;20202;-55
2023/07/19 00:25:36;;;;;;;1.97;1.50;;;;;;;;;;5054013;28;20301;-55
2023/07/19 00:28:02;;;;;;;3.87;2.10;;;;;;;;;;5053469;28;20206;-55
2023/07/19 00:30:28;;;;;;;3.67;1.90;;;;;;;;;;5053626;28;20204;-55
2023/07/19 00:32:54;;;;;;;2.20;2.00;;;;;;;;;;5053600;28;20207;-55
2023/07/19 00:35:20;;;;;;;3.60;1.87;;;;;;;;;;5053312;28;20596;-55
2023/07/19 00:37:46;;;;;;;3.47;1.80;;;;;;;;;;5053401;28;20918;-55
2023/07/19 00:40:12;;;;;;;3.37;1.70;;;;;;;;;;5053455;28;20206;-55
2023/07/19 00:42:39;;;;;;;2.07;1.83;;;;;;;;;;5053293;28;20311;-54
2023/07/19 00:45:06;;;;;;;2.20;1.50;;;;;;;;;;5053306;28;20594;-55
2023/07/19 00:47:32;;;;;;;3.67;1.40;;;;;;;;;;5053257;28;20655;-55
2023/07/19 00:49:58;;;;;;;1.93;1.47;;;;;;;;;;5053148;28;20228;-55
2023/07/19 00:52:24;;;;;;;2.33;1.80;;;;;;;;;;5053216;28;20186;-54
2023/07/19 00:54:50;;;;;;;2.83;1.57;;;;;;;;;;5052894;28;20244;-55
2023/07/19 00:57:16;;;;;;;2.23;1.50;;;;;;;;;;5053089;28;20193;-55
2023/07/19 00:59:44;;;;;;;2.20;1.80;;;;;;;;;;5053074;28;20197;-55
2023/07/19 01:02:10;;;;;;;3.77;2.33;;;;;;;;;;5053070;28;20252;-55
2023/07/19 01:04:36;;;;;;;2.23;1.80;;;;;;;;;;5052907;28;20230;-54
2023/07/19 01:07:02;;;;;;;3.30;1.67;;;;;;;;;;5052657;28;20203;-55
2023/07/19 01:09:28;;;;;;;2.30;1.83;;;;;;;;;;5052462;28;20208;-54
2023/07/19 01:11:54;;;;;;;2.07;1.67;;;;;;;;;;5052856;28;20198;-55
2023/07/19 01:14:20;;;;;;;2.40;1.83;;;;;;;;;;5052844;28;20228;-55
2023/07/19 01:16:48;;;;;;;2.40;1.70;;;;;;;;;;5052538;28;20222;-55
2023/07/19 01:19:16;;;;;;;2.83;1.83;;;;;;;;;;5052642;28;20211;-55
2023/07/19 01:21:42;;;;;;;3.70;1.90;;;;;;;;;;5052663;28;20206;-55
2023/07/19 01:24:09;;;;;;;2.93;2.10;;;;;;;;;;5052851;28;20196;-55
2023/07/19 01:26:35;;;;;;;2.63;1.80;;;;;;;;;;5052616;28;20741;-55
2023/07/19 01:29:01;;;;;;;2.90;1.83;;;;;;;;;;5052349;28;20301;-55
2023/07/19 01:31:27;;;;;;;3.43;1.60;;;;;;;;;;5052513;28;20208;-55
2023/07/19 01:33:53;;;;;;;2.80;1.70;;;;;;;;;;5052429;28;20202;-55
2023/07/19 01:36:20;;;;;;;3.60;2.03;;;;;;;;;;5052227;28;20281;-55
2023/07/19 01:38:46;;;;;;;2.40;2.00;;;;;;;;;;5052170;28;20342;-54
2023/07/19 01:41:13;;;;;;;1.93;1.73;;;;;;;;;;5052334;28;20196;-54
2023/07/19 01:43:39;;;;;;;3.30;1.97;;;;;;;;;;5052565;28;20344;-55
2023/07/19 01:46:05;;;;;;;2.63;1.80;;;;;;;;;;5054846;28;20641;-55
2023/07/19 01:48:32;;;;;;;4.20;2.00;;;;;;;;;;5072037;28;20679;-55
2023/07/19 01:50:58;;;;;;;2.90;1.93;;;;;;;;;;5071805;28;20207;-55
2023/07/19 01:53:24;;;;;;;3.47;1.90;;;;;;;;;;5072248;28;20200;-55
2023/07/19 01:55:50;;;;;;;2.80;1.90;;;;;;;;;;5071944;28;20228;-54
2023/07/19 01:58:17;;;;;;;2.60;1.80;;;;;;;;;;5072085;28;20240;-55
2023/07/19 02:00:43;;;;;;;2.97;1.90;;;;;;;;;;5071964;28;20197;-55
2023/07/19 02:03:09;;;;;;;4.27;2.00;;;;;;;;;;5071955;28;20205;-55
2023/07/19 02:05:35;;;;;;;3.37;1.60;;;;;;;;;;5071799;28;20215;-54
2023/07/19 02:08:03;;;;;;;2.00;1.80;;;;;;;;;;5071750;28;20211;-55
2023/07/19 02:10:29;;;;;;;3.47;2.00;;;;;;;;;;5071899;28;20215;-55
2023/07/19 02:12:55;;;;;;;3.20;2.00;;;;;;;;;;5072053;28;20201;-54
2023/07/19 02:15:23;;;;;;;3.37;2.10;;;;;;;;;;5071675;28;20228;-53
2023/07/19 02:17:49;;;;;;;3.17;2.00;;;;;;;;;;5071735;28;20201;-55
2023/07/19 02:20:19;;;;;;;3.37;1.93;;;;;;;;;;5072066;28;20191;-54
2023/07/19 02:22:46;;;;;;;3.13;1.83;;;;;;;;;;5071800;28;20200;-54
2023/07/19 02:25:12;;;;;;;2.80;1.80;;;;;;;;;;5071849;28;20201;-55
2023/07/19 02:27:38;;;;;;;3.10;2.00;;;;;;;;;;5071698;28;20667;-55
2023/07/19 02:30:05;;;;;;;2.20;1.80;;;;;;;;;;5071415;28;20204;-55
2023/07/19 02:32:32;;;;;;;2.70;1.80;;;;;;;;;;5071670;28;20215;-55
2023/07/19 02:34:58;;;;;;;2.43;1.83;;;;;;;;;;5071465;28;20285;-55
2023/07/19 02:37:24;;;;;;;2.50;1.80;;;;;;;;;;5071673;28;20235;-55
2023/07/19 02:39:50;;;;;;;1.93;1.73;;;;;;;;;;5071328;28;20235;-54
2023/07/19 02:42:16;;;;;;;2.70;2.10;;;;;;;;;;5071259;28;20199;-55
2023/07/19 02:44:42;;;;;;;4.77;1.97;;;;;;;;;;5071344;28;20557;-54
2023/07/19 02:47:08;;;;;;;2.93;1.90;;;;;;;;;;5071569;28;20727;-54
2023/07/19 02:49:36;;;;;;;5.47;2.10;;;;;;;;;;5071239;28;20655;-54
2023/07/19 02:52:02;;;;;;;3.13;2.30;;;;;;;;;;5071099;28;20291;-54
2023/07/19 02:54:28;;;;;;;2.53;2.33;;;;;;;;;;5071356;28;20287;-54
2023/07/19 02:56:54;;;;;;;3.37;2.03;;;;;;;;;;5071148;28;20249;-54
2023/07/19 02:59:20;;;;;;;2.20;2.00;;;;;;;;;;5071253;28;20234;-55
2023/07/19 03:01:46;;;;;;;4.13;2.10;;;;;;;;;;5071200;28;20192;-54
2023/07/19 03:04:12;;;;;;;2.43;2.03;;;;;;;;;;5071381;28;20728;-55
2023/07/19 03:06:40;;;;;;;3.93;2.23;;;;;;;;;;5071355;28;20217;-54
2023/07/19 03:09:06;;;;;;;3.67;2.23;;;;;;;;;;5071261;28;20197;-54
2023/07/19 03:11:32;;;;;;;5.97;2.37;;;;;;;;;;5071122;28;20230;-54
2023/07/19 03:13:58;;;;;;;3.90;2.17;;;;;;;;;;5071089;28;20681;-54
2023/07/19 03:16:24;;;;;;;3.40;2.13;;;;;;;;;;5071333;28;20255;-54
2023/07/19 03:18:50;;;;;;;2.60;2.10;;;;;;;;;;5071059;28;20569;-54
2023/07/19 03:21:16;;;;;;;3.13;1.70;;;;;;;;;;5070932;28;20196;-55
2023/07/19 03:23:43;;;;;;;3.10;2.03;;;;;;;;;;5071153;28;20246;-54
2023/07/19 03:26:09;;;;;;;4.03;2.10;;;;;;;;;;5071385;28;20227;-54
2023/07/19 03:28:35;;;;;;;5.13;2.17;;;;;;;;;;5070905;28;20650;-54
2023/07/19 03:31:01;;;;;;;4.00;2.60;;;;;;;;;;5071675;28;20207;-53
2023/07/19 03:33:27;;;;;;;4.53;2.30;;;;;;;;;;5074786;28;20522;-54
2023/07/19 03:35:54;;;;;;;3.10;2.20;;;;;;;;;;5074683;28;20274;-54
2023/07/19 03:38:20;;;;;;;6.23;2.70;;;;;;;;;;5074531;28;20635;-54
2023/07/19 03:40:47;;;;;;;2.67;2.30;;;;;;;;;;5074446;28;20204;-54
2023/07/19 03:43:14;;;;;;;4.80;2.50;;;;;;;;;;5073515;28;20240;-53
2023/07/19 03:45:40;;;;;;;4.67;2.67;;;;;;;;;;5074300;28;20283;-54
2023/07/19 03:48:07;;;;;;;2.67;2.30;;;;;;;;;;5074149;28;20207;-54
2023/07/19 03:50:33;;;;;;;3.70;2.47;;;;;;;;;;5074342;28;20242;-54
2023/07/19 03:53:01;;;;;;;3.53;2.33;;;;;;;;;;5074247;28;20191;-54
2023/07/19 03:55:27;;;;;;;5.13;2.63;;;;;;;;;;5074267;28;20216;-55
2023/07/19 03:57:55;;;;;;;4.83;2.30;;;;;;;;;;5074274;28;20200;-54
2023/07/19 04:00:21;;;;;;;3.30;2.30;;;;;;;;;;5074209;28;20278;-54
2023/07/19 04:02:47;;;;;;;4.40;2.80;;;;;;;;;;5074070;28;20282;-54
2023/07/19 04:05:13;;;;;;;4.23;2.53;;;;;;;;;;5074064;28;20219;-58
2023/07/19 04:07:39;;;;;;;4.83;2.73;;;;;;;;;;5074186;28;20192;-54
2023/07/19 04:10:05;;;;;;;3.07;2.63;;;;;;;;;;5073970;28;20553;-54
2023/07/19 04:12:31;;;;;;;3.30;3.00;;;;;;;;;;5073986;28;20207;-54
2023/07/19 04:14:59;;;;;;;6.80;2.90;;;;;;;;;;5073811;28;20196;-54
2023/07/19 04:17:25;;;;;;;4.87;3.33;;;;;;;;;;5074319;28;20199;-54
2023/07/19 04:19:51;;;;;;;5.47;3.07;;;;;;;;;;5073672;28;20563;-53
2023/07/19 04:22:17;;;;;;;3.10;2.70;;;;;;;;;;5073827;28;20203;-54
2023/07/19 04:24:43;;;;;;;3.00;2.50;;;;;;;;;;5073786;28;20199;-54
2023/07/19 04:27:09;;;;;;;4.03;2.43;;;;;;;;;;5073633;28;20208;-54
2023/07/19 04:29:35;;;;;;;2.80;2.50;;;;;;;;;;5073677;28;20217;-54
2023/07/19 04:32:02;;;;;;;4.33;3.00;;;;;;;;;;5073500;28;20200;-54
2023/07/19 04:34:29;;;;;;;2.57;2.30;;;;;;;;;;5073520;28;20249;-55
2023/07/19 04:36:55;;;;;;;5.27;3.07;;;;;;;;;;5073580;28;20277;-54
2023/07/19 04:39:20;;;;;;;7.53;2.93;;;;;;;;;;5073495;28;20606;-54
2023/07/19 04:41:47;;;;;;;6.77;3.17;;;;;;;;;;5073120;28;20199;-54
2023/07/19 04:44:13;;;;;;;3.17;2.67;;;;;;;;;;5072505;28;20288;-54
2023/07/19 04:46:39;;;;;;;5.40;3.30;;;;;;;;;;5073387;28;20196;-54
2023/07/19 04:49:06;;;;;;;3.90;3.03;;;;;;;;;;5073181;28;20196;-56
2023/07/19 04:51:32;;;;;;;4.50;3.23;;;;;;;;;;5073037;28;20199;-54
2023/07/19 04:53:58;;;;;;;5.37;3.20;;;;;;;;;;5073378;28;20195;-54
2023/07/19 04:56:24;;;;;;;6.17;3.47;;;;;;;;;;5073360;28;20223;-54
2023/07/19 04:58:50;;;;;;;5.87;3.10;;;;;;;;;;5072962;28;20684;-55
2023/07/19 05:01:16;;;;;;;5.37;3.30;;;;;;;;;;5072867;28;20205;-54
2023/07/19 05:03:42;;;;;;;4.97;3.20;;;;;;;;;;5072864;28;20191;-54
2023/07/19 05:06:10;;;;;;;4.37;3.40;;;;;;;;;;5072716;28;20702;-55
2023/07/19 05:08:37;;;;;;;6.40;3.30;;;;;;;;;;5072857;28;20210;-55
2023/07/19 05:11:03;;;;;;;3.40;2.93;;;;;;;;;;5072719;28;20219;-54
2023/07/19 05:13:29;;;;;;;4.30;3.10;;;;;;;;;;5072716;28;20196;-54
2023/07/19 05:15:56;;;;;;;4.93;3.03;;;;;;;;;;5072672;28;20298;-54
2023/07/19 05:18:22;;;;;;;3.70;2.87;;;;;;;;;;5072694;28;20210;-54
2023/07/19 05:20:48;;;;;;;3.50;2.50;;;;;;;;;;5072472;28;20708;-54
2023/07/19 05:23:15;;;;;;;3.10;2.80;;;;;;;;;;5072866;28;20217;-54
2023/07/19 05:25:41;;;;;;;4.20;2.87;;;;;;;;;;5072555;28;20196;-54
2023/07/19 05:28:07;;;;;;;3.63;2.57;;;;;;;;;;5072449;28;20756;-54
2023/07/19 05:30:33;;;;;;;2.83;2.40;;;;;;;;;;5072477;28;20191;-54
2023/07/19 05:32:59;;;;;;;2.97;2.47;;;;;;;;;;5072297;28;20600;-54
2023/07/19 05:35:25;;;;;;;4.23;2.70;;;;;;;;;;5072232;28;20216;-54
2023/07/19 05:37:51;;;;;;;3.40;2.83;;;;;;;;;;5072250;28;20191;-54
2023/07/19 05:40:19;;;;;;;4.70;2.80;;;;;;;;;;5072260;28;20689;-54
2023/07/19 05:42:46;;;;;;;4.47;2.83;;;;;;;;;;5072088;28;20239;-55
2023/07/19 05:45:12;;;;;;;3.27;2.50;;;;;;;;;;5071977;28;20246;-55
2023/07/19 05:47:38;;;;;;;3.13;2.53;;;;;;;;;;5072171;28;20250;-55
2023/07/19 05:50:05;;;;;;;3.03;2.70;;;;;;;;;;5071898;28;20203;-55
2023/07/19 05:52:31;;;;;;;4.23;2.93;;;;;;;;;;5072015;28;20572;-55
2023/07/19 05:54:57;;;;;;;4.70;2.80;;;;;;;;;;5071713;28;20206;-55
2023/07/19 05:57:24;;;;;;;3.67;2.63;;;;;;;;;;5072171;28;20219;-55
2023/07/19 05:59:50;;;;;;;4.63;3.07;;;;;;;;;;5071983;28;20206;-55
2023/07/19 06:02:16;;;;;;;4.23;2.87;;;;;;;;;;5071826;28;20291;-55
2023/07/19 06:04:42;;;;;;;4.40;2.93;;;;;;;;;;5071897;28;20289;-55
2023/07/19 06:07:08;;;;;;;3.47;2.80;;;;;;;;;;5072000;28;20226;-56
2023/07/19 06:09:34;;;;;;;5.50;3.40;;;;;;;;;;5071858;28;20218;-55
2023/07/19 06:12:00;;;;;;;7.53;3.90;;;;;;;;;;5071711;28;20593;-55
2023/07/19 06:14:28;;;;;;;3.80;2.87;;;;;;;;;;5071752;28;20302;-56
2023/07/19 06:16:54;;;;;;;4.13;3.10;;;;;;;;;;5071861;28;20223;-56
2023/07/19 06:19:20;;;;;;;4.50;3.20;;;;;;;;;;5071636;28;20199;-55
2023/07/19 06:21:46;;;;;;;5.60;3.53;;;;;;;;;;5071437;28;20196;-55
2023/07/19 06:24:12;;;;;;;4.80;3.47;;;;;;;;;;5071512;28;20201;-55
2023/07/19 06:26:38;;;;;;;4.70;3.33;;;;;;;;;;5071651;28;20217;-55
2023/07/19 06:29:04;;;;;;;4.43;3.10;;;;;;;;;;5071463;28;20203;-53
2023/07/19 06:31:31;;;;;;;4.97;3.03;;;;;;;;;;5071599;28;20200;-54
2023/07/19 06:33:57;;;;;;;5.47;3.03;;;;;;;;;;5071540;28;20217;-55
2023/07/19 06:36:24;;;;;;;3.77;3.30;;;;;;;;;;5071676;28;20224;-55
2023/07/19 06:38:50;;;;;;;5.37;3.00;;;;;;;;;;5071476;28;20201;-55
2023/07/19 06:41:16;;;;;;;5.63;3.30;;;;;;;;;;5071405;28;20211;-54
2023/07/19 06:43:42;;;;;;;5.40;3.03;;;;;;;;;;5071245;28;20648;-55
2023/07/19 06:46:08;;;;;;;3.40;2.87;;;;;;;;;;5071293;28;20197;-55
2023/07/19 06:48:36;;;;;;;8.27;3.13;;;;;;;;;;5071295;28;20197;-55
2023/07/19 06:51:02;;;;;;;5.00;2.77;;;;;;;;;;5071397;28;20205;-55
2023/07/19 06:53:28;;;;;;;5.10;2.90;;;;;;;;;;5071463;28;20202;-55
2023/07/19 06:55:57;;;;;;;3.93;3.17;;;;;;;;;;5071380;28;20223;-55
2023/07/19 06:58:23;;;;;;;3.97;3.03;;;;;;;;;;5071582;28;20207;-55
2023/07/19 07:00:49;;;;;;;5.07;2.67;;;;;;;;;;5071214;28;20253;-55
2023/07/19 07:03:15;;;;;;;5.90;2.87;;;;;;;;;;5071093;28;20656;-55
2023/07/19 07:05:45;;;;;;;5.00;2.60;;;;;;;;;;5071482;28;20222;-53
2023/07/19 07:08:11;;;;;;;4.03;2.97;;;;;;;;;;5075270;28;20244;-54
2023/07/19 07:10:37;;;;;;;3.73;3.33;;;;;;;;;;5075450;28;20215;-54
2023/07/19 07:13:03;;;;;;;5.10;2.70;;;;;;;;;;5075036;28;20231;-54
2023/07/19 07:15:29;;;;;;;3.13;2.80;;;;;;;;;;5074902;28;20634;-54
2023/07/19 07:17:55;;;;;;;3.10;2.50;;;;;;;;;;5074954;28;20213;-54
2023/07/19 07:20:21;;;;;;;2.77;2.47;;;;;;;;;;5074910;28;20238;-54
2023/07/19 07:22:49;;;;;;;4.57;2.90;;;;;;;;;;5074691;28;20224;-55
2023/07/19 07:25:15;;;;;;;3.60;2.90;;;;;;;;;;5074686;28;20206;-55
2023/07/19 07:27:41;;;;;;;5.57;3.20;;;;;;;;;;5074848;28;20195;-54
2023/07/19 07:30:08;;;;;;;4.20;2.90;;;;;;;;;;5074599;28;20196;-54
2023/07/19 07:32:35;;;;;;;4.53;2.60;;;;;;;;;;5074665;28;20199;-54
2023/07/19 07:35:01;;;;;;;4.33;2.20;;;;;;;;;;5074368;28;20194;-55
2023/07/19 07:37:27;;;;;;;6.07;3.03;;;;;;;;;;5074435;28;20767;-54
2023/07/19 07:39:54;;;;;;;3.13;2.57;;;;;;;;;;5074494;28;20217;-50
2023/07/19 07:42:21;;;;;;;5.30;3.10;;;;;;;;;;5074332;28;20419;-53
2023/07/19 07:44:47;;;;;;;5.07;3.03;;;;;;;;;;5074450;28;20268;-53
2023/07/19 07:47:13;;;;;;;4.73;3.30;;;;;;;;;;5074436;28;20198;-53
2023/07/19 07:49:39;;;;;;;2.50;2.17;;;;;;;;;;5074459;28;20219;-52
2023/07/19 07:52:05;;;;;;;4.60;2.70;;;;;;;;;;5074389;28;20198;-53
2023/07/19 07:54:31;;;;;;;4.57;2.50;;;;;;;;;;5074298;28;20226;-54
2023/07/19 07:56:58;;;;;;;4.87;2.73;;;;;;;;;;5074170;28;20698;-54
2023/07/19 07:59:24;;;;;;;4.03;2.37;;;;;;;;;;5074370;28;20200;-54
2023/07/19 08:01:50;;;;;;;4.17;2.90;;;;;;;;;;5073966;28;20265;-54
2023/07/19 08:04:16;;;;;;;3.70;2.70;;;;;;;;;;5074230;28;20203;-53
2023/07/19 08:06:42;;;;;;;5.17;2.73;;;;;;;;;;5074048;28;20578;-54
2023/07/19 08:09:08;;;;;;;3.70;2.23;;;;;;;;;;5074024;28;20188;-54
2023/07/19 08:11:34;;;;;;;3.43;2.20;;;;;;;;;;5074130;28;20223;-53
2023/07/19 08:14:01;;;;;;;4.53;2.23;;;;;;;;;;5073751;28;20246;-54
2023/07/19 08:16:28;;;;;;;5.07;2.60;;;;;;;;;;5074036;28;20258;-53
2023/07/19 08:18:54;;;;;;;4.83;2.30;;;;;;;;;;5073824;28;20288;-52
2023/07/19 08:21:20;;;;;;;3.63;2.10;;;;;;;;;;5073884;28;20224;-54
2023/07/19 08:23:51;;;;;;;4.97;2.30;;;;;;;;;;5073801;28;20286;-53
2023/07/19 08:26:17;;;;;;;7.33;2.53;;;;;;;;;;5073821;28;20191;-54
2023/07/19 08:28:44;;;;;;;4.70;2.37;;;;;;;;;;5073849;28;20274;-53
2023/07/19 08:31:11;;;;;;;4.97;2.27;;;;;;;;;;5073734;28;20246;-53
2023/07/19 08:33:37;;;;;;;6.07;2.73;;;;;;;;;;5073549;28;20243;-53
2023/07/19 08:36:03;;;;;;;5.33;2.20;;;;;;;;;;5073336;28;20691;-53
2023/07/19 08:38:29;;;;;;;3.57;1.93;;;;;;;;;;5073461;28;20207;-53
2023/07/19 08:41:02;;;;;;;5.07;2.40;;;;;;;;;;5073673;28;20274;-54
2023/07/19 08:43:29;;;;;;;4.27;2.13;;;;;;;;;;5073433;28;20286;-54
2023/07/19 08:45:55;;;;;;;4.70;2.00;;;;;;;;;;5073481;28;20190;-52
2023/07/19 08:48:23;;;;;;;3.70;2.00;;;;;;;;;;5073485;28;20652;-53
2023/07/19 08:50:52;;;;;;;5.93;2.00;;;;;;;;;;5073324;28;20209;-55
2023/07/19 08:53:18;;;;;;;4.97;2.10;;;;;;;;;;5073382;28;20190;-55
2023/07/19 08:55:44;;;;;;;6.60;2.50;;;;;;;;;;5073334;28;20221;-54
2023/07/19 08:58:10;;;;;;;5.00;2.00;;;;;;;;;;5073390;28;20275;-54
2023/07/19 09:00:36;;;;;;;4.93;2.07;;;;;;;;;;5073320;28;20201;-55
2023/07/19 09:03:02;;;;;;;4.47;1.87;;;;;;;;;;5073241;28;20266;-54
2023/07/19 09:05:30;;;;;;;3.40;1.80;;;;;;;;;;5073019;28;20283;-55
2023/07/19 09:07:59;;;;;;;3.90;1.70;;;;;;;;;;5073200;28;20262;-55
2023/07/19 09:10:25;;;;;;;5.30;2.30;;;;;;;;;;5073075;28;20632;-54
2023/07/19 09:12:51;;;;;;;4.30;1.80;;;;;;;;;;5072941;28;20209;-54
2023/07/19 09:15:18;;;;;;;4.03;1.53;;;;;;;;;;5073089;28;20290;-53
2023/07/19 09:17:44;;;;;;;4.37;1.90;;;;;;;;;;5072690;28;20206;-55
2023/07/19 09:20:11;;;;;;;3.13;1.70;;;;;;;;;;5072809;28;20283;-54
2023/07/19 09:22:39;;;;;;;2.40;1.87;;;;;;;;;;5072705;28;20653;-54
2023/07/19 09:25:05;;;;;;;3.70;1.90;;;;;;;;;;5072809;28;20222;-54
2023/07/19 09:27:32;;;;;;;6.00;2.10;;;;;;;;;;5072713;28;20217;-54
2023/07/19 09:29:58;;;;;;;3.63;1.57;;;;;;;;;;5072141;28;20206;-55
2023/07/19 09:32:24;;;;;;;3.10;1.50;;;;;;;;;;5072829;28;20206;-54
2023/07/19 09:34:53;;;;;;;2.03;1.50;;;;;;;;;;5072413;28;20693;-55
2023/07/19 09:37:20;;;;;;;3.87;1.67;;;;;;;;;;5072413;28;20256;-55
2023/07/19 09:39:47;;;;;;;4.90;1.70;;;;;;;;;;5072528;28;20210;-55
2023/07/19 09:42:13;;;;;;;2.33;1.50;;;;;;;;;;5072154;28;20209;-55
2023/07/19 09:44:40;;;;;;;4.37;1.70;;;;;;;;;;5072299;28;20279;-54
2023/07/19 09:47:09;;;;;;;2.73;1.70;;;;;;;;;;5072223;28;20184;-54
2023/07/19 09:49:38;;;;;;;2.90;1.60;;;;;;;;;;5071985;28;20233;-53
2023/07/19 09:52:05;;;;;;;5.33;1.77;;;;;;;;;;5072103;28;20266;-54
2023/07/19 09:54:31;;;;;;;3.40;1.60;;;;;;;;;;5072288;28;20206;-54
2023/07/19 09:56:59;;;;;;;3.03;1.83;;;;;;;;;;5071983;28;20731;-54
2023/07/19 09:59:27;;;;;;;4.60;1.80;;;;;;;;;;5072234;28;20667;-54
2023/07/19 10:01:54;;;;;;;3.77;1.80;;;;;;;;;;5072060;28;20240;-55
2023/07/19 10:04:24;;;;;;;3.60;1.77;;;;;;;;;;5072189;28;20199;-56
2023/07/19 10:06:50;;;;;;;3.00;1.50;;;;;;;;;;5071694;28;20226;-54
2023/07/19 10:09:30;;;;;;;3.20;1.30;;;;;;;;;;5072129;28;20253;-53
2023/07/19 10:12:00;;;;;;;3.43;1.63;;;;;;;;;;5071977;28;20676;-54
2023/07/19 10:14:27;;;;;;;2.30;1.40;;;;;;;;;;5072115;28;20232;-54
2023/07/19 10:16:56;;;;;;;4.57;1.73;;;;;;;;;;5071951;28;20226;-54
2023/07/19 10:19:22;;;;;;;2.93;1.60;;;;;;;;;;5071835;28;20184;-54
2023/07/19 10:22:03;;;;;;;7.23;1.90;;;;;;;;;;5071780;28;20205;-54
2023/07/19 10:24:29;;;;;;;4.27;1.80;;;;;;;;;;5071841;28;20192;-54
2023/07/19 10:26:55;;;;;;;3.93;1.60;;;;;;;;;;5071861;28;20210;-54
2023/07/19 10:29:25;;;;;;;2.10;1.40;;;;;;;;;;5072047;28;20283;-54
2023/07/19 10:31:51;;;;;;;3.27;1.50;;;;;;;;;;5071843;28;20235;-54
2023/07/19 10:34:28;;;;;;;4.23;1.70;;;;;;;;;;5071687;28;20199;-54
2023/07/19 10:36:55;;;;;;;3.13;1.53;;;;;;;;;;5071739;28;20296;-54
2023/07/19 10:39:23;;;;;;;3.90;1.57;;;;;;;;;;5071852;28;20673;-55
2023/07/19 10:41:49;;;;;;;2.67;1.80;;;;;;;;;;5074031;28;20199;-54
2023/07/19 10:44:15;;;;;;;2.83;1.70;;;;;;;;;;5075684;28;20749;-54
2023/07/19 10:46:44;;;;;;;1.90;1.70;;;;;;;;;;5076016;28;20230;-56
2023/07/19 10:49:10;;;;;;;5.10;1.90;;;;;;;;;;5075691;28;20788;-55
2023/07/19 10:51:37;;;;;;;3.27;1.50;;;;;;;;;;5075742;28;20373;-55
2023/07/19 10:54:06;;;;;;;2.07;1.40;;;;;;;;;;5075693;28;20839;-55
2023/07/19 10:56:33;;;;;;;2.30;1.60;;;;;;;;;;5075609;28;20245;-55
2023/07/19 10:58:59;;;;;;;3.27;1.60;;;;;;;;;;5075194;28;20229;-55
2023/07/19 11:01:28;;;;;;;3.73;1.70;;;;;;;;;;5075694;28;20203;-55
2023/07/19 11:04:01;;;;;;;2.83;1.77;;;;;;;;;;5075495;28;20206;-55
2023/07/19 11:06:27;;;;;;;2.40;1.53;;;;;;;;;;5075569;28;20219;-55
2023/07/19 11:08:53;;;;;;;2.10;1.30;;;;;;;;;;5074218;28;20191;-56
2023/07/19 11:11:19;;;;;;;4.60;1.80;;;;;;;;;;5075439;28;20273;-55
2023/07/19 11:13:46;;;;;;;2.27;1.30;;;;;;;;;;5075444;28;20195;-55
2023/07/19 11:16:12;;;;;;;2.97;1.80;;;;;;;;;;5075274;28;20219;-55
2023/07/19 11:18:38;;;;;;;1.83;1.60;;;;;;;;;;5075312;28;20253;-55
2023/07/19 11:21:06;;;;;;;2.90;1.53;;;;;;;;;;5075076;28;20256;-54
2023/07/19 11:23:37;;;;;;;2.80;1.40;;;;;;;;;;5075112;28;20199;-55
2023/07/19 11:26:03;;;;;;;2.90;1.60;;;;;;;;;;5074998;28;20195;-55
2023/07/19 11:28:43;;;;;;;3.60;1.70;;;;;;;;;;5074999;28;20199;-54
2023/07/19 11:31:11;;;;;;;2.20;1.40;;;;;;;;;;5075071;28;20201;-54
2023/07/19 11:33:39;;;;;;;2.60;1.40;;;;;;;;;;5075008;28;20282;-54
2023/07/19 11:36:07;;;;;;;3.37;1.57;;;;;;;;;;5074670;28;20275;-54
2023/07/19 11:38:33;;;;;;;1.73;1.43;;;;;;;;;;5074951;28;20203;-55
2023/07/19 11:41:00;;;;;;;1.97;1.60;;;;;;;;;;5074691;28;20195;-55
2023/07/19 11:43:26;;;;;;;3.07;1.67;;;;;;;;;;5074604;28;20242;-55
2023/07/19 11:45:52;;;;;;;4.07;1.60;;;;;;;;;;5074668;28;20277;-55
2023/07/19 11:48:19;;;;;;;2.63;1.70;;;;;;;;;;5074283;28;20214;-54
2023/07/19 11:50:48;;;;;;;2.47;1.40;;;;;;;;;;5074585;28;20199;-55
2023/07/19 11:53:16;;;;;;;1.77;1.50;;;;;;;;;;5073879;28;20202;-54
2023/07/19 11:55:44;;;;;;;3.47;1.80;;;;;;;;;;5074500;28;20230;-54
2023/07/19 11:58:10;;;;;;;3.00;2.00;;;;;;;;;;5074389;28;20568;-54
2023/07/19 12:00:36;;;;;;;2.60;1.53;;;;;;;;;;5074532;28;20194;-54
2023/07/19 12:03:02;;;;;;;3.13;1.50;;;;;;;;;;5074202;28;20837;-53
2023/07/19 12:05:28;;;;;;;2.50;1.60;;;;;;;;;;5074370;28;20727;-54
2023/07/19 12:07:55;;;;;;;3.13;1.57;;;;;;;;;;5074590;28;20281;-54
2023/07/19 12:10:23;;;;;;;2.97;1.77;;;;;;;;;;5074269;28;20253;-55
2023/07/19 12:12:50;;;;;;;4.27;1.70;;;;;;;;;;5074227;28;20680;-54
2023/07/19 12:15:16;;;;;;;2.07;1.47;;;;;;;;;;5074088;28;20202;-54
2023/07/19 12:17:42;;;;;;;2.87;1.50;;;;;;;;;;5074205;28;20309;-55
2023/07/19 12:20:09;;;;;;;3.13;1.50;;;;;;;;;;5073913;28;20644;-54
2023/07/19 12:22:35;;;;;;;2.63;1.57;;;;;;;;;;5074115;28;20286;-54
2023/07/19 12:25:02;;;;;;;2.93;1.47;;;;;;;;;;5073941;28;20229;-55
2023/07/19 12:27:29;;;;;;;2.77;1.77;;;;;;;;;;5074057;28;20195;-54
2023/07/19 12:29:56;;;;;;;3.97;1.70;;;;;;;;;;5073950;28;20290;-55
2023/07/19 12:32:23;;;;;;;2.83;1.60;;;;;;;;;;5074003;28;20206;-54
2023/07/19 12:34:49;;;;;;;4.07;1.90;;;;;;;;;;5073595;28;20222;-54
2023/07/19 12:37:15;;;;;;;2.97;1.77;;;;;;;;;;5073549;28;20718;-54
2023/07/19 12:39:41;;;;;;;1.97;1.23;;;;;;;;;;5073790;28;20245;-54
2023/07/19 12:42:07;;;;;;;4.33;1.70;;;;;;;;;;5073620;28;20199;-53
2023/07/19 12:44:35;;;;;;;2.80;1.77;;;;;;;;;;5073430;28;20227;-53
2023/07/19 12:47:01;;;;;;;2.03;1.60;;;;;;;;;;5073312;28;20640;-54
2023/07/19 12:49:27;;;;;;;4.83;1.33;;;;;;;;;;5073718;28;20242;-54
2023/07/19 12:51:53;;;;;;;4.13;1.70;;;;;;;;;;5073553;28;20223;-54
2023/07/19 12:54:19;;;;;;;3.20;1.43;;;;;;;;;;5073416;28;20230;-55
2023/07/19 12:56:46;;;;;;;2.50;1.30;;;;;;;;;;5073497;28;20263;-54
2023/07/19 12:59:12;;;;;;;4.60;2.00;;;;;;;;;;5073233;28;20194;-54
2023/07/19 13:01:40;;;;;;;1.73;1.40;;;;;;;;;;5073341;28;20711;-54
2023/07/19 13:04:06;;;;;;;2.43;1.70;;;;;;;;;;5072160;28;20624;-54
2023/07/19 13:06:33;;;;;;;3.00;1.60;;;;;;;;;;5073199;28;20207;-54
2023/07/19 13:08:59;;;;;;;5.13;1.70;;;;;;;;;;5073163;28;20814;-54
2023/07/19 13:11:25;;;;;;;3.80;2.00;;;;;;;;;;5073160;28;20203;-54
2023/07/19 13:13:51;;;;;;;4.40;1.63;;;;;;;;;;5073007;28;20210;-54
2023/07/19 13:16:17;;;;;;;3.07;1.60;;;;;;;;;;5072757;28;20648;-55
2023/07/19 13:18:45;;;;;;;2.17;1.60;;;;;;;;;;5072672;28;20199;-55
2023/07/19 13:21:11;;;;;;;2.30;1.50;;;;;;;;;;5072841;28;20206;-58
2023/07/19 13:23:38;;;;;;;2.23;1.77;;;;;;;;;;5072841;28;20604;-51
2023/07/19 13:26:04;;;;;;;1.70;1.50;;;;;;;;;;5072733;28;20214;-55
2023/07/19 13:28:30;;;;;;;4.87;1.90;;;;;;;;;;5072974;28;20219;-61
2023/07/19 13:30:56;;;;;;;3.07;1.53;;;;;;;;;;5072688;28;20259;-53
2023/07/19 13:33:25;;;;;;;2.47;1.70;;;;;;;;;;5070428;28;20202;-53
2023/07/19 13:35:52;;;;;;;1.87;1.47;;;;;;;;;;5071827;28;20203;-54
2023/07/19 13:38:21;;;;;;;2.93;1.60;;;;;;;;;;5072159;28;20306;-53
2023/07/19 13:40:47;;;;;;;2.13;1.60;;;;;;;;;;5072039;28;20194;-52
2023/07/19 13:43:13;;;;;;;4.27;1.90;;;;;;;;;;5071771;28;20264;-54
2023/07/19 13:45:40;;;;;;;2.83;1.70;;;;;;;;;;5072123;28;20236;-54
2023/07/19 13:48:06;;;;;;;2.50;1.80;;;;;;;;;;5071881;28;20616;-52
2023/07/19 13:50:32;;;;;;;2.80;1.80;;;;;;;;;;5071693;28;20239;-52
2023/07/19 13:53:00;;;;;;;2.40;1.60;;;;;;;;;;5071705;28;20199;-53
2023/07/19 13:55:26;;;;;;;4.97;1.87;;;;;;;;;;5072032;28;20258;-53
2023/07/19 13:57:52;;;;;;;5.27;1.87;;;;;;;;;;5071767;28;20241;-53
2023/07/19 14:00:19;;;;;;;4.53;2.20;;;;;;;;;;5070399;28;20315;-53
2023/07/19 14:02:45;;;;;;;3.33;1.70;;;;;;;;;;5072186;28;20204;-53
2023/07/19 14:05:12;;;;;;;3.10;1.83;;;;;;;;;;5072041;28;20714;-52
2023/07/19 14:07:38;;;;;;;2.43;1.50;;;;;;;;;;5072312;28;20200;-52
2023/07/19 14:10:07;;;;;;;3.70;1.83;;;;;;;;;;5071947;28;20198;-53
2023/07/19 14:12:34;;;;;;;4.10;1.60;;;;;;;;;;5071986;28;20205;-54
2023/07/19 14:15:00;;;;;;;3.17;1.70;;;;;;;;;;5071671;28;20597;-52
2023/07/19 14:17:26;;;;;;;5.87;2.50;;;;;;;;;;5071863;28;20722;-52
2023/07/19 14:19:52;;;;;;;10.23;2.77;;;;;;;;;;5071958;28;20219;-51
2023/07/19 14:22:18;;;;;;;5.30;2.50;;;;;;;;;;5071833;28;20207;-53
2023/07/19 14:24:45;;;;;;;4.53;2.20;;;;;;;;;;5071949;28;20234;-52
2023/07/19 14:27:12;;;;;;;8.00;2.63;;;;;;;;;;5071886;28;20192;-51
2023/07/19 14:29:40;;;;;;;5.40;2.80;;;;;;;;;;5071934;28;20203;-52
2023/07/19 14:32:06;;;;;;;6.20;2.83;;;;;;;;;;5071839;28;20198;-52
2023/07/19 14:34:32;;;;;;;6.10;3.27;;;;;;;;;;5071658;28;20719;-52
2023/07/19 14:36:58;;;;;;;5.97;2.63;;;;;;;;;;5071717;28;20223;-53
2023/07/19 14:39:26;;;;;;;3.60;2.40;;;;;;;;;;5071759;28;20724;-53